Time;durP1;ratioP1;P1;durP2;ratioP2;P2;SDS_P1;SDS_P2;PMS_P1;PMS_P2;Temp;Humidity;BMP_temperature;BMP_pressure;BME280_temperature;BME280_humidity;BME280_pressure;Samples;Min_cycle;Max_cycle;Signal;HPM_P1;HPM_P2
2021/05/23 00:00:34;;;;;;;46.13;43.05;;;15.30;99.90;;;;;;5015540;28;20418;-59
2021/05/23 00:03:08;;;;;;;42.55;40.10;;;15.20;99.90;;;;;;5015499;28;20029;-59
2021/05/23 00:05:39;;;;;;;43.33;40.65;;;15.20;99.90;;;;;;5015529;28;20477;-58
2021/05/23 00:08:12;;;;;;;44.83;41.78;;;15.20;99.90;;;;;;5015634;28;20049;-58
2021/05/23 00:10:57;;;;;;;43.10;40.50;;;15.30;99.90;;;;;;5015368;28;20030;-58
2021/05/23 00:13:27;;;;;;;43.10;40.70;;;15.40;99.90;;;;;;5015622;28;20431;-58
2021/05/23 00:16:01;;;;;;;42.42;39.85;;;15.60;99.90;;;;;;5015112;28;20026;-57
2021/05/23 00:18:31;;;;;;;39.20;36.70;;;15.60;99.90;;;;;;5015349;28;20026;-58
2021/05/23 00:20:59;;;;;;;38.45;36.05;;;15.70;99.90;;;;;;5015208;28;20022;-59
2021/05/23 00:23:27;;;;;;;36.80;34.47;;;15.80;99.90;;;;;;5015200;28;20442;-59
2021/05/23 00:25:55;;;;;;;38.60;36.28;;;16.00;99.90;;;;;;4997624;28;20068;-59
2021/05/23 00:28:23;;;;;;;38.40;36.20;;;16.00;99.90;;;;;;5015080;28;20566;-58
2021/05/23 00:30:51;;;;;;;37.47;35.03;;;16.10;99.90;;;;;;5015116;28;20487;-58
2021/05/23 00:33:19;;;;;;;38.17;35.80;;;16.10;99.90;;;;;;5015017;28;20479;-59
2021/05/23 00:35:46;;;;;;;39.60;37.50;;;16.10;99.90;;;;;;5014809;28;20033;-59
2021/05/23 00:38:14;;;;;;;36.55;34.22;;;16.20;99.90;;;;;;5014906;28;20494;-59
2021/05/23 00:40:42;;;;;;;36.75;34.40;;;16.20;99.90;;;;;;5014847;28;20018;-58
2021/05/23 00:43:21;;;;;;;36.00;33.60;;;16.20;99.90;;;;;;5014677;28;20056;-59
2021/05/23 00:45:49;;;;;;;36.00;33.90;;;16.40;99.90;;;;;;5014773;28;20036;-58
2021/05/23 00:48:18;;;;;;;37.40;35.30;;;16.60;99.90;;;;;;5014526;28;20037;-60
2021/05/23 00:50:46;;;;;;;34.72;32.83;;;16.70;99.90;;;;;;5014656;28;20371;-59
2021/05/23 00:53:14;;;;;;;35.13;33.10;;;16.60;99.90;;;;;;5014608;28;20030;-58
2021/05/23 00:55:42;;;;;;;34.30;32.30;;;16.70;99.90;;;;;;5014447;28;20101;-60
2021/05/23 00:58:10;;;;;;;32.17;30.40;;;16.90;99.90;;;;;;5014172;28;20021;-59
2021/05/23 01:00:49;;;;;;;32.90;30.83;;;16.90;99.90;;;;;;5014539;28;20526;-59
2021/05/23 01:03:31;;;;;;;30.50;28.80;;;16.80;99.90;;;;;;4996795;28;20022;-59
2021/05/23 01:06:06;;;;;;;32.15;30.27;;;16.80;99.90;;;;;;5014431;28;20022;-60
2021/05/23 01:08:38;;;;;;;33.00;31.15;;;17.00;99.90;;;;;;5014471;28;20025;-60
2021/05/23 01:11:16;;;;;;;31.10;29.30;;;17.00;99.90;;;;;;5014321;28;20022;-58
2021/05/23 01:13:59;;;;;;;32.67;30.77;;;16.90;99.90;;;;;;4998284;28;20046;-58
2021/05/23 01:16:55;;;;;;;32.90;30.95;;;17.10;99.90;;;;;;5014405;28;20109;-59
2021/05/23 01:19:31;;;;;;;32.10;30.13;;;17.10;99.90;;;;;;5006215;28;20113;-59
2021/05/23 01:22:26;;;;;;;31.73;29.80;;;16.90;99.90;;;;;;5014375;28;20026;-59
2021/05/23 01:25:29;;;;;;;32.75;30.85;;;17.00;99.90;;;;;;4996513;28;20034;-59
2021/05/23 01:27:57;;;;;;;33.30;31.20;;;17.10;99.90;;;;;;4952980;28;20464;-59
2021/05/23 01:30:28;;;;;;;33.53;31.45;;;17.10;99.90;;;;;;5002810;28;20033;-59
2021/05/23 01:33:03;;;;;;;32.38;30.38;;;17.30;99.90;;;;;;5014010;28;20025;-59
2021/05/23 01:35:42;;;;;;;31.55;29.55;;;17.20;99.90;;;;;;5013873;28;20026;-59
2021/05/23 01:38:15;;;;;;;31.80;29.63;;;17.20;99.90;;;;;;5013828;28;20018;-59
2021/05/23 01:40:43;;;;;;;30.75;28.77;;;17.30;99.90;;;;;;5013622;28;20021;-60
2021/05/23 01:43:12;;;;;;;30.52;28.52;;;17.50;99.90;;;;;;5013714;28;20083;-59
2021/05/23 01:45:40;;;;;;;30.10;28.30;;;17.60;99.90;;;;;;5013646;28;20053;-58
2021/05/23 01:48:10;;;;;;;29.88;27.80;;;17.70;99.90;;;;;;5013694;28;20029;-58
2021/05/23 01:50:39;;;;;;;28.07;26.47;;;17.90;99.90;;;;;;5013804;28;20120;-59
2021/05/23 01:53:08;;;;;;;27.23;25.40;;;18.00;99.90;;;;;;5013533;28;20018;-59
2021/05/23 01:55:36;;;;;;;27.13;25.33;;;18.20;99.90;;;;;;5013506;28;20363;-58
2021/05/23 01:58:04;;;;;;;25.75;24.25;;;18.40;99.90;;;;;;5013077;28;20018;-58
2021/05/23 02:00:41;;;;;;;25.10;23.40;;;18.70;99.90;;;;;;4996262;28;20030;-56
2021/05/23 02:03:11;;;;;;;24.50;22.90;;;18.90;99.90;;;;;;5013112;28;20502;-53
2021/05/23 02:05:50;;;;;;;23.50;21.95;;;19.30;99.90;;;;;;5012979;28;20026;-54
2021/05/23 02:08:19;;;;;;;22.70;20.92;;;19.40;99.90;;;;;;5013270;28;20069;-55
2021/05/23 02:10:49;;;;;;;22.45;21.05;;;19.40;99.90;;;;;;5013502;28;20486;-56
2021/05/23 02:13:17;;;;;;;22.25;20.65;;;19.50;99.90;;;;;;5013285;28;20018;-57
2021/05/23 02:15:46;;;;;;;20.60;19.30;;;19.50;99.90;;;;;;5013101;28;20029;-55
2021/05/23 02:18:14;;;;;;;20.00;18.70;;;19.40;99.90;;;;;;5013026;28;20096;-56
2021/05/23 02:20:41;;;;;;;20.42;19.15;;;19.20;99.90;;;;;;5013196;28;20387;-56
2021/05/23 02:23:17;;;;;;;19.42;18.23;;;19.00;99.90;;;;;;5012842;28;20026;-56
2021/05/23 02:25:45;;;;;;;19.55;18.27;;;19.00;99.90;;;;;;5013255;28;20124;-56
2021/05/23 02:28:14;;;;;;;20.02;18.63;;;19.00;99.90;;;;;;5013067;28;20105;-57
2021/05/23 02:30:49;;;;;;;19.13;17.92;;;19.10;99.90;;;;;;5013018;28;20088;-57
2021/05/23 02:33:18;;;;;;;19.10;17.90;;;19.10;99.90;;;;;;5013111;28;20030;-56
2021/05/23 02:35:50;;;;;;;20.45;18.88;;;19.20;99.90;;;;;;5012900;28;20026;-56
2021/05/23 02:38:18;;;;;;;18.40;17.20;;;19.50;99.90;;;;;;5013426;28;20394;-56
2021/05/23 02:40:47;;;;;;;18.50;17.20;;;19.70;99.90;;;;;;5017132;28;20097;-57
2021/05/23 02:43:16;;;;;;;17.58;16.42;;;20.00;99.90;;;;;;5016905;28;20017;-56
2021/05/23 02:45:44;;;;;;;17.60;16.50;;;20.20;99.90;;;;;;4999591;28;20034;-57
2021/05/23 02:48:12;;;;;;;17.13;15.90;;;20.30;99.90;;;;;;5017076;28;20049;-57
2021/05/23 02:50:45;;;;;;;18.00;16.75;;;20.20;99.90;;;;;;5016791;28;20065;-57
2021/05/23 02:53:13;;;;;;;17.80;16.70;;;20.20;99.90;;;;;;5016996;28;20057;-57
2021/05/23 02:55:44;;;;;;;18.23;16.98;;;20.40;99.90;;;;;;5016719;28;20510;-57
2021/05/23 02:58:12;;;;;;;18.00;17.02;;;20.90;99.90;;;;;;5016906;28;20113;-58
2021/05/23 03:00:40;;;;;;;17.10;16.08;;;21.10;99.90;;;;;;5016628;28;20053;-58
2021/05/23 03:03:10;;;;;;;16.20;15.15;;;21.10;99.90;;;;;;5016819;28;20510;-58
2021/05/23 03:05:38;;;;;;;16.17;15.00;;;20.90;99.90;;;;;;5016544;28;20033;-57
2021/05/23 03:08:06;;;;;;;14.88;13.82;;;20.80;99.90;;;;;;5016787;28;20025;-58
2021/05/23 03:10:54;;;;;;;15.85;14.75;;;20.80;99.90;;;;;;5016382;28;20026;-59
2021/05/23 03:13:23;;;;;;;15.00;14.10;;;20.70;99.90;;;;;;5016689;28;20018;-57
2021/05/23 03:15:50;;;;;;;14.93;13.90;;;20.90;99.90;;;;;;5016354;28;20486;-58
2021/05/23 03:18:18;;;;;;;13.90;13.00;;;21.00;99.90;;;;;;5016469;28;20510;-56
2021/05/23 03:20:45;;;;;;;15.90;14.82;;;21.10;99.90;;;;;;5016434;28;20080;-59
2021/05/23 03:23:13;;;;;;;14.73;13.68;;;21.20;99.90;;;;;;5016543;28;20069;-61
2021/05/23 03:25:41;;;;;;;15.30;14.10;;;21.10;99.90;;;;;;5016565;28;20026;-59
2021/05/23 03:28:08;;;;;;;14.88;13.77;;;21.00;99.90;;;;;;5016300;28;20057;-60
2021/05/23 03:30:41;;;;;;;14.55;13.68;;;20.80;99.90;;;;;;5016452;28;20026;-60
2021/05/23 03:33:10;;;;;;;14.77;13.88;;;20.80;99.90;;;;;;5016237;28;20026;-61
2021/05/23 03:35:38;;;;;;;14.13;13.18;;;20.90;99.90;;;;;;5016192;28;20057;-61
2021/05/23 03:38:06;;;;;;;13.40;12.65;;;20.80;99.90;;;;;;5016286;28;20018;-60
2021/05/23 03:40:39;;;;;;;12.95;12.23;;;21.00;99.90;;;;;;5016230;28;20100;-60
2021/05/23 03:43:08;;;;;;;12.82;11.93;;;21.20;99.90;;;;;;5016338;28;20029;-62
2021/05/23 03:45:35;;;;;;;12.82;11.75;;;21.10;99.90;;;;;;5016187;28;20037;-61
2021/05/23 03:48:03;;;;;;;11.90;11.10;;;21.20;99.90;;;;;;5016057;28;20040;-60
2021/05/23 03:50:31;;;;;;;11.77;10.98;;;21.60;99.90;;;;;;5015303;28;20026;-61
2021/05/23 03:52:59;;;;;;;13.02;12.20;;;21.50;99.90;;;;;;5015986;28;20026;-61
2021/05/23 03:55:28;;;;;;;14.20;12.90;;;21.20;99.90;;;;;;5015736;28;20034;-62
2021/05/23 03:57:56;;;;;;;14.30;13.35;;;20.90;99.90;;;;;;5015481;28;20479;-59
2021/05/23 04:00:25;;;;;;;15.43;14.50;;;20.50;99.90;;;;;;5015759;28;20018;-58
2021/05/23 04:02:54;;;;;;;15.88;14.77;;;20.20;99.90;;;;;;4998019;28;20117;-59
2021/05/23 04:05:27;;;;;;;15.45;14.27;;;20.00;99.90;;;;;;5015724;28;20030;-57
2021/05/23 04:07:55;;;;;;;16.30;15.20;;;19.60;99.90;;;;;;5015744;28;20033;-60
2021/05/23 04:10:26;;;;;;;17.27;15.98;;;19.40;99.90;;;;;;5015683;28;20395;-58
2021/05/23 04:12:56;;;;;;;17.05;16.15;;;19.20;99.90;;;;;;5015529;28;20036;-59
2021/05/23 04:15:24;;;;;;;18.63;17.42;;;19.20;99.90;;;;;;5015267;28;20034;-59
2021/05/23 04:17:51;;;;;;;17.65;16.50;;;19.50;99.90;;;;;;5015467;28;20447;-58
2021/05/23 04:20:21;;;;;;;16.75;15.85;;;19.70;99.90;;;;;;5015293;28;20022;-61
2021/05/23 04:22:51;;;;;;;15.52;14.63;;;19.80;99.90;;;;;;5015338;28;20530;-58
2021/05/23 04:25:20;;;;;;;16.57;15.53;;;19.70;99.90;;;;;;5015235;28;20087;-58
2021/05/23 04:27:48;;;;;;;16.10;15.13;;;20.00;99.90;;;;;;5015254;28;20097;-59
2021/05/23 04:30:19;;;;;;;16.05;14.73;;;20.10;99.90;;;;;;5015413;28;20037;-60
2021/05/23 04:32:47;;;;;;;14.55;13.85;;;20.00;99.90;;;;;;5015175;28;20502;-59
2021/05/23 04:35:15;;;;;;;14.05;13.25;;;20.00;99.90;;;;;;5015111;28;20029;-60
2021/05/23 04:37:44;;;;;;;14.00;13.20;;;20.10;99.90;;;;;;5015031;28;20108;-60
2021/05/23 04:40:14;;;;;;;13.88;12.80;;;20.10;99.90;;;;;;5014934;28;20037;-59
2021/05/23 04:42:45;;;;;;;13.07;12.48;;;20.10;99.90;;;;;;5014945;28;20061;-60
2021/05/23 04:45:14;;;;;;;13.27;12.38;;;20.10;99.90;;;;;;5015201;28;20499;-59
2021/05/23 04:47:42;;;;;;;14.18;13.38;;;19.90;99.90;;;;;;5015006;28;20026;-60
2021/05/23 04:50:11;;;;;;;15.25;14.13;;;19.80;99.90;;;;;;5015013;28;20018;-59
2021/05/23 04:52:38;;;;;;;15.30;14.30;;;19.90;99.90;;;;;;5014872;28;20021;-61
2021/05/23 04:55:07;;;;;;;16.92;15.82;;;19.90;99.90;;;;;;5014730;28;20022;-61
2021/05/23 04:57:36;;;;;;;14.30;13.45;;;20.10;99.90;;;;;;4997234;28;20390;-62
2021/05/23 05:00:06;;;;;;;14.23;13.13;;;20.30;99.90;;;;;;5014574;28;20117;-59
2021/05/23 05:02:34;;;;;;;14.02;13.23;;;20.30;99.90;;;;;;5013734;28;20022;-61
2021/05/23 05:05:03;;;;;;;13.27;12.50;;;20.30;99.90;;;;;;5014570;28;20036;-60
2021/05/23 05:07:31;;;;;;;12.77;11.80;;;20.20;99.90;;;;;;5014541;28;20064;-61
2021/05/23 05:09:58;;;;;;;13.95;13.05;;;20.30;99.90;;;;;;5014628;28;20022;-59
2021/05/23 05:12:26;;;;;;;13.63;12.95;;;20.20;99.90;;;;;;5014582;28;20061;-58
2021/05/23 05:14:53;;;;;;;14.50;13.52;;;20.00;99.90;;;;;;5014441;28;20037;-60
2021/05/23 05:17:21;;;;;;;14.10;13.30;;;20.00;99.90;;;;;;5014363;28;20025;-59
2021/05/23 05:19:48;;;;;;;15.18;14.18;;;20.10;99.90;;;;;;5014224;28;20037;-60
2021/05/23 05:22:16;;;;;;;15.60;14.70;;;20.00;99.90;;;;;;5014622;28;20017;-60
2021/05/23 05:24:43;;;;;;;16.45;15.52;;;19.80;99.90;;;;;;5014286;28;20030;-60
2021/05/23 05:27:11;;;;;;;18.23;17.02;;;19.70;99.90;;;;;;5014187;28;20026;-60
2021/05/23 05:29:38;;;;;;;18.45;17.27;;;19.60;99.90;;;;;;5014231;28;20022;-62
2021/05/23 05:32:06;;;;;;;19.30;17.90;;;19.60;99.90;;;;;;5014184;28;20021;-58
2021/05/23 05:34:33;;;;;;;18.75;17.70;;;19.40;99.90;;;;;;5013982;28;20061;-60
2021/05/23 05:37:00;;;;;;;20.25;19.00;;;19.40;99.90;;;;;;5014096;28;20382;-60
2021/05/23 05:39:28;;;;;;;21.83;20.55;;;19.20;99.90;;;;;;5014104;28;20021;-61
2021/05/23 05:41:55;;;;;;;23.15;21.80;;;19.20;99.90;;;;;;5013669;28;20029;-61
2021/05/23 05:44:22;;;;;;;22.60;21.42;;;19.10;99.90;;;;;;5014142;28;20109;-60
2021/05/23 05:46:51;;;;;;;23.70;22.23;;;19.10;99.90;;;;;;5013979;28;20102;-60
2021/05/23 05:49:18;;;;;;;24.48;23.10;;;19.10;99.90;;;;;;5013894;28;20115;-61
2021/05/23 05:51:46;;;;;;;26.90;25.25;;;19.00;99.90;;;;;;5013475;28;20065;-60
2021/05/23 05:54:13;;;;;;;27.40;25.70;;;19.00;99.90;;;;;;5013746;28;20537;-59
2021/05/23 05:56:41;;;;;;;28.17;26.55;;;18.90;99.90;;;;;;5013611;28;20072;-59
2021/05/23 05:59:08;;;;;;;30.88;29.08;;;18.70;99.90;;;;;;5013602;28;20060;-61
2021/05/23 06:01:35;;;;;;;32.45;30.75;;;18.60;99.90;;;;;;5013703;28;20029;-57
2021/05/23 06:04:03;;;;;;;34.33;32.50;;;18.40;99.90;;;;;;5013511;28;20022;-61
2021/05/23 06:06:30;;;;;;;36.83;34.50;;;18.40;99.90;;;;;;5013715;28;20053;-61
2021/05/23 06:08:58;;;;;;;39.88;37.67;;;18.20;99.90;;;;;;5013326;28;20110;-61
2021/05/23 06:11:25;;;;;;;40.25;38.00;;;18.20;99.90;;;;;;5013691;28;20022;-58
2021/05/23 06:13:52;;;;;;;39.88;37.47;;;18.10;99.90;;;;;;5013305;28;20479;-60
2021/05/23 06:16:20;;;;;;;41.47;39.30;;;18.00;99.90;;;;;;5013357;28;20030;-59
2021/05/23 06:18:47;;;;;;;42.47;40.08;;;18.00;99.90;;;;;;5013407;28;20042;-59
2021/05/23 06:21:14;;;;;;;41.67;39.17;;;17.90;99.90;;;;;;4995643;28;20026;-60
2021/05/23 06:23:41;;;;;;;41.58;39.05;;;17.90;99.90;;;;;;5013177;28;20075;-59
2021/05/23 06:26:13;;;;;;;41.50;39.20;;;17.70;99.90;;;;;;5013288;28;20443;-59
2021/05/23 06:28:42;;;;;;;41.55;38.75;;;17.60;99.90;;;;;;5013225;28;20499;-59
2021/05/23 06:31:10;;;;;;;41.35;38.88;;;17.60;99.90;;;;;;5012933;28;20025;-59
2021/05/23 06:33:37;;;;;;;41.22;38.63;;;17.50;99.90;;;;;;5013226;28;20026;-60
2021/05/23 06:36:05;;;;;;;42.28;39.47;;;17.50;99.90;;;;;;5012990;28;20033;-59
2021/05/23 06:38:32;;;;;;;42.67;40.05;;;17.40;99.90;;;;;;5013225;28;20018;-59
2021/05/23 06:41:00;;;;;;;46.53;43.58;;;17.40;99.90;;;;;;4995291;28;20033;-60
2021/05/23 06:43:27;;;;;;;44.70;42.15;;;17.30;99.90;;;;;;5012953;28;20025;-58
2021/05/23 06:45:55;;;;;;;46.92;44.30;;;17.20;99.90;;;;;;5012971;28;20021;-58
2021/05/23 06:48:22;;;;;;;46.72;43.80;;;17.20;99.90;;;;;;5012807;28;20029;-58
2021/05/23 06:50:51;;;;;;;44.90;42.08;;;17.20;99.90;;;;;;5012419;28;20450;-58
2021/05/23 06:53:18;;;;;;;45.10;42.40;;;17.20;99.90;;;;;;5012660;28;20367;-57
2021/05/23 06:55:46;;;;;;;44.20;41.60;;;17.10;99.90;;;;;;5012641;28;20025;-58
2021/05/23 06:58:13;;;;;;;46.60;43.97;;;17.10;99.90;;;;;;4994608;28;20030;-58
2021/05/23 07:00:41;;;;;;;46.72;43.92;;;17.00;99.90;;;;;;5012671;28;20049;-58
2021/05/23 07:03:08;;;;;;;48.30;45.40;;;16.90;99.90;;;;;;5012689;28;20446;-56
2021/05/23 07:05:37;;;;;;;46.40;43.50;;;17.00;99.90;;;;;;5012948;28;20030;-55
2021/05/23 07:08:06;;;;;;;45.42;42.40;;;16.90;99.90;;;;;;5012741;28;20084;-57
2021/05/23 07:10:33;;;;;;;46.35;42.97;;;17.00;99.90;;;;;;5012796;28;20084;-57
2021/05/23 07:13:01;;;;;;;51.78;48.58;;;17.00;99.90;;;;;;4994969;28;20040;-54
2021/05/23 07:15:28;;;;;;;48.15;45.03;;;16.90;99.90;;;;;;5012545;28;20027;-57
2021/05/23 07:17:58;;;;;;;51.67;48.08;;;16.90;99.90;;;;;;5012948;28;20022;-56
2021/05/23 07:20:26;;;;;;;52.28;48.88;;;16.90;99.90;;;;;;5012582;28;20037;-57
2021/05/23 07:22:54;;;;;;;51.38;48.38;;;16.90;99.90;;;;;;5012472;28;20037;-57
2021/05/23 07:25:22;;;;;;;50.40;47.17;;;16.80;99.90;;;;;;5014437;28;20065;-58
2021/05/23 07:27:51;;;;;;;48.72;45.42;;;16.80;99.90;;;;;;5016265;28;20022;-57
2021/05/23 07:30:18;;;;;;;52.13;48.83;;;16.80;99.90;;;;;;5016259;28;20053;-57
2021/05/23 07:32:46;;;;;;;52.70;49.17;;;16.80;99.90;;;;;;5016008;28;20141;-58
2021/05/23 07:35:14;;;;;;;51.08;47.80;;;16.80;99.90;;;;;;4998457;28;20030;-57
2021/05/23 07:37:41;;;;;;;50.15;46.83;;;16.80;99.90;;;;;;5016116;28;20025;-55
2021/05/23 07:40:09;;;;;;;50.83;47.55;;;16.70;99.90;;;;;;5015912;28;20053;-57
2021/05/23 07:42:37;;;;;;;45.75;42.30;;;16.70;99.90;;;;;;5016183;28;20027;-57
2021/05/23 07:45:05;;;;;;;45.75;42.35;;;16.60;99.90;;;;;;5015982;28;20026;-56
2021/05/23 07:47:33;;;;;;;45.22;42.00;;;16.50;99.90;;;;;;5015963;28;20022;-56
2021/05/23 07:50:00;;;;;;;44.53;41.13;;;16.50;99.90;;;;;;5015840;28;20033;-53
2021/05/23 07:52:30;;;;;;;47.08;43.47;;;16.50;99.90;;;;;;4998046;28;20042;-56
2021/05/23 07:54:59;;;;;;;45.38;41.88;;;16.50;99.90;;;;;;5015745;28;20026;-56
2021/05/23 07:57:27;;;;;;;46.20;42.80;;;16.50;99.90;;;;;;5015458;28;20038;-56
2021/05/23 07:59:54;;;;;;;45.65;42.22;;;16.40;99.90;;;;;;5015521;28;20453;-56
2021/05/23 08:02:22;;;;;;;44.63;41.03;;;16.50;99.90;;;;;;5015703;28;20406;-57
2021/05/23 08:04:49;;;;;;;46.80;43.08;;;16.30;99.90;;;;;;5015586;28;20483;-56
2021/05/23 08:07:17;;;;;;;49.60;45.70;;;16.30;99.90;;;;;;5015597;28;20455;-55
2021/05/23 08:09:44;;;;;;;50.15;46.30;;;16.20;99.90;;;;;;5015536;28;20026;-56
2021/05/23 08:12:12;;;;;;;69.47;63.45;;;16.30;99.90;;;;;;5015539;28;20026;-58
2021/05/23 08:14:39;;;;;;;54.30;50.40;;;16.20;99.90;;;;;;5015381;28;20026;-57
2021/05/23 08:17:07;;;;;;;55.20;50.75;;;16.10;99.90;;;;;;5015362;28;20018;-58
2021/05/23 08:19:34;;;;;;;56.47;52.15;;;16.10;99.90;;;;;;5015251;28;20030;-57
2021/05/23 08:22:02;;;;;;;53.80;49.85;;;16.10;99.90;;;;;;5015204;28;20029;-57
2021/05/23 08:24:32;;;;;;;53.97;50.03;;;16.00;99.90;;;;;;5015168;28;20148;-57
2021/05/23 08:27:01;;;;;;;;;;;16.00;99.90;;;;;;5015643;28;20025;-57
2021/05/23 08:29:30;;;;;;;47.58;43.70;;;16.00;99.90;;;;;;5015093;28;19913;-56
2021/05/23 08:32:01;;;;;;;48.70;44.88;;;16.00;99.90;;;;;;5014939;28;20026;-58
2021/05/23 08:34:29;;;;;;;53.72;49.47;;;16.00;99.90;;;;;;5014946;28;20123;-57
2021/05/23 08:36:56;;;;;;;54.65;50.22;;;15.90;99.90;;;;;;5014988;28;20018;-57
2021/05/23 08:39:24;;;;;;;53.63;49.42;;;15.80;99.90;;;;;;5015129;28;20403;-57
2021/05/23 08:41:53;;;;;;;48.55;44.80;;;15.80;99.90;;;;;;5014833;28;20480;-54
2021/05/23 08:44:22;;;;;;;51.33;47.08;;;15.70;99.90;;;;;;5014822;28;20026;-55
2021/05/23 08:46:52;;;;;;;53.05;49.03;;;15.70;99.90;;;;;;5014804;28;20089;-58
2021/05/23 08:49:24;;;;;;;50.95;47.22;;;15.60;99.90;;;;;;5014813;28;20034;-58
2021/05/23 08:51:53;;;;;;;50.83;46.72;;;15.60;99.90;;;;;;5014658;28;20119;-58
2021/05/23 08:54:21;;;;;;;49.25;45.08;;;15.50;99.90;;;;;;5014652;28;20018;-59
2021/05/23 08:56:51;;;;;;;54.20;49.70;;;15.50;99.90;;;;;;5014743;28;20447;-57
2021/05/23 08:59:19;;;;;;;53.25;48.63;;;15.60;99.90;;;;;;5014414;28;20107;-58
2021/05/23 09:01:49;;;;;;;55.88;51.22;;;15.50;99.90;;;;;;5014649;28;20021;-58
2021/05/23 09:04:20;;;;;;;52.58;48.35;;;15.50;99.90;;;;;;5014386;28;20026;-56
2021/05/23 09:06:48;;;;;;;50.22;46.20;;;15.50;99.90;;;;;;5014552;28;20026;-59
2021/05/23 09:09:17;;;;;;;47.42;43.67;;;15.50;99.90;;;;;;5014154;28;20505;-56
2021/05/23 09:11:56;;;;;;;50.20;46.00;;;15.50;99.90;;;;;;5014009;28;20374;-59
2021/05/23 09:14:33;;;;;;;52.22;48.00;;;15.50;99.90;;;;;;5014631;28;20037;-56
2021/05/23 09:17:01;;;;;;;55.65;51.55;;;15.50;99.90;;;;;;5014055;28;20022;-57
2021/05/23 09:19:38;;;;;;;54.33;50.30;;;15.50;99.90;;;;;;5013952;28;20024;-54
2021/05/23 09:22:29;;;;;;;53.35;49.13;;;15.60;99.90;;;;;;5014134;28;20024;-53
2021/05/23 09:25:01;;;;;;;55.72;51.30;;;15.50;99.90;;;;;;5006444;28;20073;-57
2021/05/23 09:27:32;;;;;;;57.47;53.00;;;15.50;99.90;;;;;;5013773;28;20034;-57
2021/05/23 09:30:01;;;;;;;;;;;15.50;99.90;;;;;;5014569;28;20026;-59
2021/05/23 09:32:29;;;;;;;57.15;52.58;;;15.50;99.90;;;;;;5013905;28;20326;-58
2021/05/23 09:35:04;;;;;;;57.83;53.13;;;15.60;99.90;;;;;;4996392;28;20026;-57
2021/05/23 09:37:32;;;;;;;53.92;49.67;;;15.60;99.90;;;;;;5013837;28;20018;-58
2021/05/23 09:40:01;;;;;;;53.63;49.22;;;15.80;99.90;;;;;;5013788;28;20435;-58
2021/05/23 09:42:28;;;;;;;51.35;47.03;;;15.80;99.90;;;;;;5013813;28;20025;-57
2021/05/23 09:44:59;;;;;;;52.88;48.70;;;15.80;99.90;;;;;;5013671;28;20022;-56
2021/05/23 09:47:26;;;;;;;;;;;15.90;99.90;;;;;;5013664;28;20026;-57
2021/05/23 09:49:54;;;;;;;52.88;48.78;;;15.90;99.90;;;;;;5013594;28;19951;-57
2021/05/23 09:52:33;;;;;;;53.78;49.72;;;15.90;99.90;;;;;;5013569;28;20120;-58
2021/05/23 09:55:01;;;;;;;53.60;49.63;;;15.90;99.90;;;;;;5013233;28;20394;-55
2021/05/23 09:57:29;;;;;;;53.40;49.03;;;15.80;99.90;;;;;;5013396;28;20031;-58
2021/05/23 10:00:00;;;;;;;53.03;49.03;;;15.70;99.90;;;;;;5013272;28;20046;-57
2021/05/23 10:02:28;;;;;;;50.10;46.10;;;15.60;99.90;;;;;;5013240;28;20555;-58
2021/05/23 10:05:05;;;;;;;54.70;50.30;;;15.60;99.90;;;;;;5013465;28;20029;-58
2021/05/23 10:07:34;;;;;;;49.17;45.28;;;15.70;99.90;;;;;;4995587;28;20034;-53
2021/05/23 10:10:02;;;;;;;52.72;47.97;;;15.70;99.90;;;;;;5013057;28;20045;-57
2021/05/23 10:12:30;;;;;;;49.83;45.72;;;15.60;99.90;;;;;;5013214;28;20057;-55
2021/05/23 10:14:57;;;;;;;47.05;43.08;;;15.60;99.90;;;;;;5012899;28;20163;-57
2021/05/23 10:17:25;;;;;;;48.90;44.67;;;15.60;99.90;;;;;;5013430;28;20025;-58
2021/05/23 10:19:52;;;;;;;50.10;46.13;;;15.60;99.90;;;;;;5013229;28;20360;-54
2021/05/23 10:22:21;;;;;;;50.13;46.08;;;15.60;99.90;;;;;;4995928;28;20101;-57
2021/05/23 10:25:00;;;;;;;49.72;45.42;;;15.50;99.90;;;;;;5013066;28;20104;-56
2021/05/23 10:27:34;;;;;;;51.05;46.88;;;15.30;99.90;;;;;;5012958;28;20402;-55
2021/05/23 10:30:05;;;;;;;49.60;45.55;;;15.30;99.90;;;;;;5012916;28;20486;-55
2021/05/23 10:32:35;;;;;;;53.28;49.20;;;15.30;99.90;;;;;;5013142;28;20029;-57
2021/05/23 10:35:24;;;;;;;50.83;46.67;;;15.10;99.90;;;;;;5012928;28;20034;-54
2021/05/23 10:37:53;;;;;;;50.70;46.53;;;15.10;99.90;;;;;;5013065;28;20026;-56
2021/05/23 10:40:27;;;;;;;51.42;47.08;;;14.90;99.90;;;;;;5012686;28;20490;-57
2021/05/23 10:42:59;;;;;;;52.80;48.75;;;14.90;99.90;;;;;;5012899;28;20022;-55
2021/05/23 10:45:39;;;;;;;61.55;57.08;;;14.90;99.90;;;;;;5013013;28;20028;-55
2021/05/23 10:48:14;;;;;;;49.22;45.08;;;14.70;99.90;;;;;;5012817;28;20021;-56
2021/05/23 10:50:44;;;;;;;49.22;44.72;;;14.70;99.90;;;;;;5012655;28;20033;-55
2021/05/23 10:53:12;;;;;;;48.67;44.28;;;14.70;99.90;;;;;;5012933;28;20026;-57
2021/05/23 10:56:19;;;;;;;50.00;45.67;;;14.70;99.90;;;;;;5012767;28;20042;-57
2021/05/23 10:58:56;;;;;;;51.08;46.63;;;14.60;99.90;;;;;;4994319;28;20402;-57
2021/05/23 11:01:47;;;;;;;55.15;50.58;;;14.50;99.90;;;;;;5016701;28;20014;-56
2021/05/23 11:04:17;;;;;;;51.60;47.15;;;14.50;99.90;;;;;;5016564;28;20505;-55
2021/05/23 11:06:49;;;;;;;54.28;50.22;;;14.60;99.90;;;;;;4999347;28;20048;-57
2021/05/23 11:09:23;;;;;;;55.83;51.58;;;14.60;99.90;;;;;;5016300;28;20026;-58
2021/05/23 11:11:50;;;;;;;49.78;45.78;;;14.50;99.90;;;;;;5016494;28;20025;-56
2021/05/23 11:14:25;;;;;;;52.72;48.50;;;14.50;99.90;;;;;;5016579;28;20033;-57
2021/05/23 11:16:55;;;;;;;55.40;51.28;;;14.50;99.90;;;;;;5016439;28;20046;-57
2021/05/23 11:19:24;;;;;;;58.42;54.22;;;14.40;99.90;;;;;;5016365;28;20022;-57
2021/05/23 11:21:54;;;;;;;60.25;55.92;;;14.30;99.90;;;;;;5016206;28;20080;-57
2021/05/23 11:24:33;;;;;;;59.97;55.27;;;14.30;99.90;;;;;;5016135;28;20030;-56
2021/05/23 11:27:20;;;;;;;62.65;57.75;;;14.20;99.90;;;;;;5016432;28;20262;-58
2021/05/23 11:29:54;;;;;;;59.92;55.58;;;14.20;99.90;;;;;;5016173;28;20041;-58
2021/05/23 11:32:22;;;;;;;58.65;54.33;;;14.20;99.90;;;;;;4998650;28;20057;-58
2021/05/23 11:34:49;;;;;;;54.95;50.63;;;14.20;99.90;;;;;;5016034;28;20030;-56
2021/05/23 11:37:19;;;;;;;58.00;53.70;;;14.30;99.90;;;;;;5016012;28;20026;-57
2021/05/23 11:39:47;;;;;;;57.78;53.25;;;14.30;99.90;;;;;;5015974;28;20022;-56
2021/05/23 11:42:14;;;;;;;58.22;54.25;;;14.30;99.90;;;;;;5016065;28;20030;-55
2021/05/23 11:44:47;;;;;;;58.60;54.25;;;14.30;99.90;;;;;;5016113;28;20502;-52
2021/05/23 11:47:16;;;;;;;59.92;55.40;;;14.30;99.90;;;;;;5015986;28;20041;-58
2021/05/23 11:49:47;;;;;;;60.13;55.72;;;14.30;99.90;;;;;;5016001;28;20030;-53
2021/05/23 11:52:17;;;;;;;60.45;56.00;;;14.30;99.90;;;;;;5015678;28;20428;-57
2021/05/23 11:54:45;;;;;;;63.00;58.40;;;14.30;99.90;;;;;;5015787;28;20473;-56
2021/05/23 11:57:17;;;;;;;58.50;54.20;;;14.30;99.90;;;;;;5015763;28;20271;-59
2021/05/23 11:59:44;;;;;;;58.92;54.38;;;14.40;99.90;;;;;;5015536;28;20042;-59
2021/05/23 12:02:12;;;;;;;59.33;54.30;;;14.40;99.90;;;;;;5015536;28;20018;-58
2021/05/23 12:04:39;;;;;;;57.15;52.60;;;14.40;99.90;;;;;;5015398;28;20442;-57
2021/05/23 12:07:06;;;;;;;55.70;51.28;;;14.40;99.90;;;;;;5015550;28;20427;-56
2021/05/23 12:09:38;;;;;;;58.38;53.45;;;14.40;99.90;;;;;;5015405;28;20080;-55
2021/05/23 12:12:10;;;;;;;57.17;52.45;;;14.40;99.90;;;;;;5015055;28;20026;-58
2021/05/23 12:14:40;;;;;;;58.42;53.90;;;14.50;99.90;;;;;;5015289;28;20033;-56
2021/05/23 12:17:19;;;;;;;59.08;54.80;;;14.50;99.90;;;;;;5015212;28;20153;-57
2021/05/23 12:19:49;;;;;;;59.53;55.17;;;14.40;99.90;;;;;;5015338;28;20036;-56
2021/05/23 12:22:22;;;;;;;63.55;59.00;;;14.40;99.90;;;;;;5015328;28;20105;-53
2021/05/23 12:24:52;;;;;;;59.85;55.50;;;14.30;99.90;;;;;;5015102;28;20494;-56
2021/05/23 12:27:42;;;;;;;60.77;56.40;;;13.80;99.90;;;;;;5014952;28;20030;-52
2021/05/23 12:30:25;;;;;;;64.82;59.95;;;14.20;99.90;;;;;;5014987;28;20030;-57
2021/05/23 12:33:01;;;;;;;59.42;55.10;;;14.20;99.90;;;;;;5015227;28;20029;-55
2021/05/23 12:35:31;;;;;;;60.95;56.42;;;14.10;99.90;;;;;;5014900;28;20133;-55
2021/05/23 12:38:01;;;;;;;69.53;64.63;;;14.10;99.90;;;;;;5014891;28;20030;-57
2021/05/23 12:40:29;;;;;;;62.25;57.70;;;14.00;99.90;;;;;;5014777;28;20018;-58
2021/05/23 12:43:16;;;;;;;64.30;59.83;;;14.00;99.90;;;;;;5014740;28;20038;-54